sim
Sign-in with your pilot id or email,
or register
Callsign
Passwort

Schedule Details

Flight Number: EWG1701 (1)
Departure: Thessaloniki International Airport (LGTS) at 13:45
Arrival: Munich Airport (EDDM) at 16:10
Route: Eurowings Passenger Schedule. Enter filed route here before submitting Pirep.

Weather Information
Getting current METAR information for LGTS 190550Z 10004KT 9999 FEW030 24/12 Q1019 NOSIG
Getting current METAR information for EDDM 190550Z VRB01KT CAVOK 05/04 Q1020 NOSIG

Schedule Frequency

Route Map